KAKR

Akron Fulton International Airport

Akron, Ohio, USA
METAR KAKR 222054Z AUTO VRB06KT 10SM CLR 19/M06 A3027 RMK AO2 SLP249 T01891061 56016
Observed Flight Rules
Apr-22 @ 20:54 UTC (42 minutes ago) Visual Flight Rules
Wind Visibility Clouds
Variable at 6 knots 10 miles
  • Clear skies
Temperatures Readings
Current 19°C / 66°F
Dewpoint -6°C / 21°F
Humidity 18%
Altimeter 30.27" Hg
Pressure 1024.9 hPa
Elevation 363
METAR KAKR 222054Z AUTO VRB06KT 10SM CLR 19/M06 A3027 RMK AO2 SLP249 T01891061 56016
Observed Flight Rules
Apr-22 @ 20:54 UTC
(42 minutes ago)
VFR
Wind Visibility
Variable at 6 knots 10 miles
Clouds
  • Clear skies
Temperature Dewpoint
19°C / 66°F -6°C / 21°F
Humidity Altimeter Pressure
18% 30.27" Hg 1024.9 hPa